Data for 09/08/2010

Time Sea-Level Adjusted Pressure Absolute Pressure Temperature Relative Humidity Dew Point   
(mb) (inHg) (mb) (inHg) (C) (F) (%) (C) (F)
00:05 1012 29.88 841 24.83 13.7 56.6 37 -0.8 30.5
00:10 1012 29.88 841 24.83 13.6 56.6 37 -0.9 30.4
00:15 1012 29.88 841 24.83 13.7 56.6 36 -0.9 30.4
00:20 1012 29.88 841 24.83 13.6 56.5 37 -0.8 30.5
00:25 1012 29.88 841 24.83 13.7 56.6 36 -1 30.2
00:30 1012 29.88 841 24.83 13.8 56.8 36 -1.1 30.1
00:35 1012 29.88 841 24.83 13.7 56.7 37 -0.8 30.6
00:40 1012 29.88 841 24.83 13.6 56.5 37 -0.7 30.7
00:45 1012 29.88 841 24.83 13.5 56.4 37 -0.7 30.7
00:50 1012 29.88 841 24.83 13.5 56.3 37 -0.8 30.6
00:55 1012 29.88 841 24.83 13.5 56.4 37 -0.8 30.6
01:00 1011 29.85 841 24.83 13.5 56.3 37 -0.8 30.6
01:05 1011 29.85 841 24.83 13.4 56.2 37 -0.7 30.7
01:10 1011 29.85 841 24.83 13.5 56.2 37 -0.7 30.7
01:15 1011 29.85 840 24.81 13.4 56.1 38 -0.6 31
01:20 1011 29.85 840 24.81 13.3 55.9 38 -0.7 30.8
01:25 1011 29.85 840 24.81 13.3 55.9 38 -0.6 30.8
01:30 1011 29.85 840 24.81 13.2 55.7 38 -0.6 30.9
01:35 1011 29.85 840 24.81 13.2 55.7 39 -0.5 31.1
01:40 1011 29.85 840 24.81 13.2 55.7 38 -0.6 31
01:45 1011 29.85 840 24.81 13.1 55.6 39 -0.6 31
01:50 1011 29.85 840 24.81 13.1 55.5 39 -0.6 31
01:55 1011 29.85 840 24.81 13.1 55.5 39 -0.5 31
02:00 1010 29.83 840 24.81 13.1 55.5 39 -0.5 31.1
02:05 1011 29.85 840 24.81 13 55.5 39 -0.5 31.1
02:10 1011 29.85 840 24.81 13.1 55.5 39 -0.5 31
02:15 1011 29.85 840 24.81 13.1 55.5 39 -0.6 31
02:20 1011 29.85 840 24.81 13.1 55.6 39 -0.6 30.9
02:25 1011 29.85 840 24.81 13.2 55.7 39 -0.5 31
02:30 1011 29.85 840 24.81 13.1 55.5 39 -0.4 31.3
02:35 1010 29.83 840 24.81 12.9 55.3 40 -0.4 31.2
02:40 1011 29.85 840 24.81 12.9 55.2 39 -0.6 30.9
02:45 1010 29.83 840 24.81 13 55.3 39 -0.5 31.1
02:50 1010 29.83 840 24.81 13 55.4 39 -0.6 30.8
02:55 1011 29.85 840 24.81 13.2 55.7 38 -0.6 30.8
03:00 1011 29.85 840 24.81 13.1 55.7 38 -0.7 30.7
03:05 1011 29.85 840 24.81 13.3 55.9 38 -0.7 30.7
03:10 1010 29.83 840 24.81 13.3 55.9 38 -0.7 30.8
03:15 1010 29.83 840 24.81 13.2 55.7 38 -0.9 30.5
03:20 1010 29.83 840 24.81 13.3 55.9 38 -0.8 30.5
03:25 1010 29.83 840 24.81 13.2 55.8 38 -0.7 30.7
03:30 1010 29.83 839 24.78 13.2 55.7 38 -0.7 30.8
03:35 1010 29.83 840 24.81 13.2 55.8 38 -0.9 30.4
03:40 1010 29.83 839 24.78 13.3 55.9 37 -0.8 30.5
03:45 1010 29.83 840 24.81 13.2 55.8 37 -0.9 30.3
03:50 1010 29.83 840 24.81 13.2 55.7 37 -1 30.3
03:55 1010 29.83 840 24.81 13.1 55.6 38 -0.7 30.7
04:00 1010 29.83 839 24.78 12.8 55 39 -0.7 30.7
04:05 1010 29.83 840 24.81 12.5 54.4 40 -0.5 31
04:10 1010 29.83 840 24.81 12.3 54.1 40 -0.8 30.5
04:15 1010 29.83 840 24.81 12.4 54.2 40 -0.6 30.8
04:20 1011 29.85 840 24.81 12.3 54.1 40 -0.9 30.4
04:25 1011 29.85 840 24.81 12.4 54.4 40 -0.8 30.6
04:30 1011 29.85 840 24.81 12.5 54.4 40 -0.7 30.7
04:35 1011 29.85 840 24.81 12.5 54.4 40 -0.7 30.8
04:40 1011 29.85 840 24.81 12.5 54.5 39 -1 30.3
04:45 1011 29.85 840 24.81 12.8 55.1 39 -0.9 30.5
04:50 1010 29.83 840 24.81 13.1 55.6 38 -0.9 30.4
04:55 1010 29.83 840 24.81 13.4 56.2 37 -1 30.1
05:00 1010 29.83 840 24.81 13.6 56.6 37 -0.9 30.4
05:05 1010 29.83 840 24.81 13.7 56.7 37 -0.6 30.9
05:10 1010 29.83 839 24.78 13.8 56.8 37 -0.7 30.7
05:15 1010 29.83 840 24.81 13.8 56.9 37 -0.6 31
05:20 1010 29.83 840 24.81 13.8 56.8 37 -0.5 31
05:25 1010 29.83 840 24.81 13.7 56.7 37 -0.5 31.2
05:30 1010 29.83 839 24.78 13.6 56.6 38 -0.4 31.4
05:35 1010 29.83 840 24.81 13.6 56.5 38 -0.2 31.6
05:40 1010 29.83 840 24.81 13.5 56.3 39 -0.2 31.7
05:45 1010 29.83 839 24.78 13.4 56.2 39 -0.1 31.7
05:50 1010 29.83 839 24.78 13.6 56.4 39 -0.1 31.8
05:55 1010 29.83 839 24.78 13.7 56.7 38 -0.1 31.8
06:00 1010 29.83 839 24.78 13.8 56.8 39 0 32
06:05 1010 29.83 839 24.78 14 57.2 39 0.2 32.4
06:10 1010 29.83 839 24.78 14 57.2 39 0.2 32.4
06:15 1010 29.83 839 24.78 14 57.2 39 0.5 32.9
06:20 1010 29.83 839 24.78 13.8 56.9 40 0.5 32.9
06:25 1010 29.83 839 24.78 13.6 56.4 41 0.6 33
06:30 1010 29.83 839 24.78 13.4 56.1 41 0.6 33.1
06:35 1010 29.83 839 24.78 13.3 55.9 42 0.6 33.1
06:40 1010 29.83 839 24.78 13.3 55.9 42 0.6 33.1
06:45 1010 29.83 839 24.78 13.3 55.9 42 0.7 33.3
06:50 1010 29.83 839 24.78 13.5 56.3 41 0.6 33.1
06:55 1010 29.83 839 24.78 13.7 56.7 41 0.8 33.5
07:00 1010 29.83 840 24.81 13.8 56.8 42 1.1 33.9
07:05 1010 29.83 840 24.81 13.7 56.6 43 1.3 34.3
07:10 1011 29.85 840 24.81 13.6 56.6 42 1.1 34
07:15 1011 29.85 840 24.81 13.4 56 44 1.5 34.7
07:20 1011 29.85 840 24.81 12.3 54.2 46 1.2 34.2
07:25 1011 29.85 840 24.81 11.8 53.2 49 1.4 34.5
07:30 1011 29.85 840 24.81 11.2 52.1 53 1.9 35.5
07:35 1011 29.85 840 24.81 10.6 51.1 53 1.6 34.8
07:40 1011 29.85 840 24.81 10.3 50.6 58 2.5 36.5
07:45 1011 29.85 840 24.81 10 50 59 2.3 36.1
07:50 1011 29.85 841 24.83 9.8 49.7 60 2.4 36.4
07:55 1011 29.85 840 24.81 9.7 49.4 61 2.5 36.4
08:00 1011 29.85 841 24.83 9.7 49.5 60 2.4 36.3
08:05 1011 29.85 841 24.83 10 49.9 61 2.8 37
08:10 1011 29.85 841 24.83 9.9 49.8 61 2.7 36.8
08:15 1012 29.88 841 24.83 10.1 50.1 60 2.6 36.7
08:20 1012 29.88 841 24.83 10.2 50.4 58 2.4 36.3
08:25 1012 29.88 841 24.83 10.3 50.6 63 3.7 38.6
08:30 1012 29.88 841 24.83 9.9 49.9 65 3.7 38.6
08:35 1012 29.88 841 24.83 10.1 50.3 66 4.1 39.3
08:40 1011 29.85 841 24.83 10.3 50.5 66 4.2 39.5
08:45 1011 29.85 840 24.81 10.2 50.4 67 4.4 39.9
08:50 1011 29.85 840 24.81 11.8 53.2 61 4.5 40.1
08:55 1011 29.85 840 24.81 11.4 52.5 61 4.3 39.7
09:00 1011 29.85 840 24.81 11.4 52.5 61 4.3 39.7
09:05 1011 29.85 840 24.81 12.2 53.9 58 4.3 39.8
09:10 1011 29.85 840 24.81 12.8 55 59 5.1 41.2
09:15 1011 29.85 840 24.81 13.3 56 56 4.9 40.8
09:20 1010 29.83 840 24.81 14.1 57.4 53 4.8 40.7
09:25 1010 29.83 840 24.81 14.5 58.1 57 6 42.9
09:30 1010 29.83 839 24.78 15.8 60.4 43 3.5 38.3
09:35 1010 29.83 839 24.78 17.2 63 42 4.5 40
09:40 1010 29.83 839 24.78 17.4 63.3 45 5.3 41.5
09:45 1010 29.83 839 24.78 17 62.6 47 5.8 42.5
09:50 1010 29.83 839 24.78 15.9 60.7 52 6.3 43.3
09:55 1010 29.83 840 24.81 15.5 60 56 6.8 44.2
10:00 1010 29.83 840 24.81 15.2 59.3 53 5.7 42.3
10:05 1010 29.83 840 24.81 15.4 59.8 51 5.4 41.6
10:10 1010 29.83 840 24.81 15.4 59.7 53 6 42.9
10:15 1010 29.83 840 24.81 15.7 60.2 50 5.4 41.7
10:20 1011 29.85 840 24.81 15.8 60.4 52 6.1 43.1
10:25 1011 29.85 840 24.81 15.8 60.4 54 6.5 43.6
10:30 1011 29.85 840 24.81 15.5 59.9 55 6.6 43.9
10:35 1011 29.85 840 24.81 15.5 59.9 55 6.6 43.9
10:40 1011 29.85 840 24.81 15.7 60.3 53 6.2 43.2
10:45 1011 29.85 840 24.81 15.9 60.7 54 6.7 44.1
10:50 1011 29.85 840 24.81 16 60.8 52 6.3 43.3
10:55 1011 29.85 840 24.81 16.1 61 51 6.2 43.1
11:00 1011 29.85 840 24.81 16.3 61.3 50 5.8 42.5
11:05 1011 29.85 840 24.81 16.6 61.8 51 6.4 43.5
11:10 1010 29.83 840 24.81 16.6 61.9 50 6.4 43.4
11:15 1010 29.83 840 24.81 16.8 62.2 51 6.7 44
11:20 1010 29.83 840 24.81 16.9 62.4 52 7 44.6
11:25 1010 29.83 840 24.81 17.3 63.1 48 6.4 43.5
11:30 1010 29.83 840 24.81 17.6 63.6 46 6.1 42.9
11:35 1010 29.83 840 24.81 17.7 63.8 50 7.3 45.1
11:40 1010 29.83 840 24.81 17.6 63.7 50 7.2 45
11:45 1010 29.83 840 24.81 17.6 63.7 50 7.3 45.1
11:50 1010 29.83 840 24.81 17.9 64.1 49 7.2 44.9
11:55 1010 29.83 840 24.81 18.2 64.7 50 7.6 45.7
12:00 1010 29.83 840 24.81 18.1 64.6 47 6.9 44.3
12:05 1010 29.83 840 24.81 18.2 64.7 49 7.5 45.5
12:10 1010 29.83 840 24.81 18.3 64.9 49 7.6 45.7
12:15 1010 29.83 840 24.81 18.3 65 49 7.4 45.4
12:20 1010 29.83 839 24.78 18.5 65.4 49 7.6 45.7
12:25 1010 29.83 839 24.78 19 66.2 48 7.9 46.2
12:30 1010 29.83 839 24.78 19.8 67.6 40 5.9 42.5
12:35 1010 29.83 839 24.78 20.5 68.8 37 5.5 41.9
12:40 1010 29.83 839 24.78 20.7 69.2 37 5.7 42.3
12:45 1010 29.83 839 24.78 20.8 69.4 36 5.1 41.2
12:50 1010 29.83 839 24.78 20.9 69.7 38 6.3 43.4
12:55 1010 29.83 839 24.78 21.2 70.1 36 5.6 42.1
13:00 1010 29.83 839 24.78 21.4 70.6 34 4.9 40.9
13:05 1010 29.83 839 24.78 21.5 70.8 35 5.6 42
13:10 1010 29.83 839 24.78 21.6 70.9 35 5.8 42.5
13:15 1010 29.83 839 24.78 21.6 70.8 34 5.2 41.3
13:20 1010 29.83 839 24.78 21.5 70.7 35 5.4 41.7
13:25 1010 29.83 839 24.78 21.9 71.4 35 6.1 42.9
13:30 1010 29.83 839 24.78 21.8 71.2 34 5.5 42
13:35 1010 29.83 839 24.78 21.5 70.7 36 5.8 42.5
13:40 1010 29.83 839 24.78 21.7 71.1 33 4.9 40.8
13:45 1010 29.83 839 24.78 21.8 71.3 32 4.8 40.6
13:50 1010 29.83 839 24.78 21.9 71.4 34 5.5 41.9
13:55 1010 29.83 839 24.78 22.1 71.7 33 5.2 41.3
14:00 1010 29.83 839 24.78 22.1 71.8 30 4.1 39.4
14:05 1010 29.83 839 24.78 22.1 71.8 32 4.8 40.7
14:10 1010 29.83 839 24.78 21.9 71.5 33 5 41
14:15 1010 29.83 839 24.78 22 71.5 32 4.5 40.2
14:20 1010 29.83 839 24.78 21.9 71.4 34 5.4 41.8
14:25 1010 29.83 839 24.78 22 71.6 33 5.2 41.4
14:30 1010 29.83 839 24.78 22 71.6 36 6.4 43.6
14:35 1009 29.8 839 24.78 21.8 71.3 33 4.8 40.7
14:40 1010 29.83 839 24.78 21.7 71.1 33 4.8 40.6
14:45 1010 29.83 839 24.78 21.5 70.7 34 5.1 41.1
14:50 1010 29.83 839 24.78 21.2 70.2 37 6.2 43.1
14:55 1010 29.83 839 24.78 20.6 69.2 37 5.7 42.3
15:00 1010 29.83 839 24.78 19.5 67.2 40 5.6 42.1
15:05 1010 29.83 840 24.81 19.1 66.3 41 5.6 42.2
15:10 1010 29.83 840 24.81 18.5 65.3 50 7.9 46.2
15:15 1010 29.83 839 24.78 17.4 63.4 56 8.7 47.6
15:20 1010 29.83 839 24.78 17.3 63.2 57 8.9 47.9
15:25 1010 29.83 839 24.78 17 62.5 59 9 48.2
15:30 1010 29.83 839 24.78 17.2 63 61 9.6 49.3
15:35 1010 29.83 839 24.78 17 62.6 62 9.8 49.6
15:40 1010 29.83 839 24.78 17.1 62.7 61 9.5 49.1
15:45 1010 29.83 839 24.78 17.5 63.5 60 9.6 49.3
15:50 1010 29.83 839 24.78 17.9 64.2 58 9.7 49.4
15:55 1009 29.8 839 24.78 18.1 64.6 60 10.3 50.5
16:00 1009 29.8 839 24.78 17.5 63.5 58 9.2 48.6
16:05 1009 29.8 839 24.78 17.3 63.1 57 8.7 47.7
16:10 1009 29.8 839 24.78 17.3 63.1 57 8.8 47.8
16:15 1009 29.8 839 24.78 17.3 63.1 56 8.6 47.4
16:20 1009 29.8 839 24.78 17.2 62.9 57 8.7 47.7
16:25 1009 29.8 839 24.78 17.1 62.7 58 8.8 47.9
16:30 1009 29.8 839 24.78 16.9 62.4 61 9.4 48.9
16:35 1009 29.8 839 24.78 16.8 62.2 62 9.5 49.2
16:40 1009 29.8 838 24.75 16.6 61.9 64 9.8 49.7
16:45 1009 29.8 839 24.78 16.5 61.6 65 9.9 49.8
16:50 1009 29.8 839 24.78 16.4 61.4 64 9.7 49.4
16:55 1009 29.8 839 24.78 16.3 61.3 64 9.6 49.2
17:00 1009 29.8 839 24.78 16.2 61.1 65 9.7 49.5
17:05 1010 29.83 839 24.78 16 60.9 66 9.7 49.4
17:10 1010 29.83 839 24.78 15.9 60.6 65 9.5 49
17:15 1010 29.83 840 24.81 15.8 60.4 67 9.8 49.6
17:20 1011 29.85 840 24.81 15.8 60.4 62 8.6 47.4
17:25 1011 29.85 840 24.81 15.9 60.7 65 9.4 48.9
17:30 1011 29.85 840 24.81 15.3 59.5 71 10.1 50.2
17:35 1012 29.88 841 24.83 13.7 56.6 78 9.9 49.8
17:40 1012 29.88 841 24.83 12.8 55 79 9.2 48.6
17:45 1012 29.88 841 24.83 12.4 54.4 80 9.2 48.5
17:50 1011 29.85 840 24.81 12.4 54.3 81 9.2 48.6
17:55 1011 29.85 840 24.81 12.2 53.9 84 9.7 49.4
18:00 1011 29.85 840 24.81 11.8 53.3 85 9.4 49
18:05 1011 29.85 841 24.83 12 53.6 85 9.6 49.2
18:10 1012 29.88 841 24.83 12 53.6 86 9.7 49.4
18:15 1012 29.88 841 24.83 11.8 53.3 85 9.4 48.9
18:20 1012 29.88 841 24.83 11.7 53.1 84 9.2 48.5
18:25 1011 29.85 840 24.81 11.6 52.9 89 9.8 49.7
18:30 1011 29.85 840 24.81 11.4 52.5 90 9.8 49.6
18:35 1011 29.85 840 24.81 11.4 52.5 91 9.9 49.9
18:40 1011 29.85 840 24.81 11.3 52.4 91 9.9 49.8
18:45 1011 29.85 840 24.81 11.3 52.4 91 9.8 49.7
18:50 1011 29.85 840 24.81 11.3 52.4 90 9.7 49.5
18:55 1011 29.85 840 24.81 11.3 52.3 89 9.6 49.3
19:00 1011 29.85 840 24.81 11.3 52.4 89 9.6 49.2
19:05 1011 29.85 840 24.81 11.4 52.6 88 9.5 49.2
19:10 1011 29.85 840 24.81 11.4 52.5 89 9.6 49.3
19:15 1010 29.83 839 24.78 11.3 52.4 88 9.5 49.1
19:20 1010 29.83 839 24.78 11.5 52.7 87 9.5 49.1
19:25 1010 29.83 839 24.78 11.4 52.5 89 9.6 49.4
19:30 1010 29.83 839 24.78 11.4 52.5 88 9.4 49
19:35 1010 29.83 839 24.78 11.6 52.8 88 9.6 49.3
19:40 1010 29.83 839 24.78 11.6 52.9 87 9.5 49.2
19:45 1010 29.83 840 24.81 11.7 53.1 86 9.5 49.1
19:50 1011 29.85 840 24.81 11.9 53.3 86 9.5 49.2
19:55 1011 29.85 840 24.81 11.9 53.5 85 9.5 49.2
20:00 1011 29.85 840 24.81 11.8 53.3 85 9.4 49
20:05 1012 29.88 841 24.83 12.3 54.1 80 9 48.1
20:10 1012 29.88 841 24.83 12.4 54.3 83 9.6 49.2
20:15 1012 29.88 841 24.83 11.8 53.2 87 9.8 49.6
20:20 1011 29.85 841 24.83 11.6 52.8 84 8.9 48.1
20:25 1011 29.85 841 24.83 11.7 53.1 84 9.1 48.4
20:30 1011 29.85 841 24.83 11.7 53.1 86 9.6 49.2
20:35 1011 29.85 840 24.81 11.4 52.4 86 9.2 48.5
20:40 1011 29.85 840 24.81 11.3 52.3 86 9 48.2
20:45 1011 29.85 840 24.81 11.1 52 87 9.1 48.4
20:50 1011 29.85 841 24.83 11 51.7 88 9.1 48.4
20:55 1011 29.85 841 24.83 11 51.8 86 8.7 47.7
21:00 1011 29.85 840 24.81 11.1 52 86 8.9 48
21:05 1011 29.85 840 24.81 11 51.8 88 9.1 48.4
21:10 1011 29.85 840 24.81 10.9 51.6 89 9.2 48.5
21:15 1012 29.88 841 24.83 10.9 51.6 88 9.1 48.3
21:20 1012 29.88 841 24.83 10.8 51.4 88 8.9 48.1
21:25 1011 29.85 840 24.81 10.9 51.6 88 9.1 48.3
21:30 1011 29.85 840 24.81 11 51.7 88 9 48.2
21:35 1011 29.85 841 24.83 11.1 51.9 87 9 48.3
21:40 1012 29.88 841 24.83 11.1 52 87 9 48.3
21:45 1012 29.88 841 24.83 11.1 52 86 8.8 47.9
21:50 1012 29.88 841 24.83 11.3 52.3 86 9 48.1
21:55 1012 29.88 841 24.83 11.4 52.5 86 9.2 48.6
22:00 1011 29.85 840 24.81 11.1 52 90 9.5 49.1
22:05 1010 29.83 840 24.81 10.5 50.9 92 9.3 48.7
22:10 1011 29.85 840 24.81 10.3 50.6 91 9 48.2
22:15 1011 29.85 840 24.81 10.4 50.8 91 9 48.1
22:20 1011 29.85 840 24.81 10.4 50.7 91 9 48.3
22:25 1011 29.85 840 24.81 10.3 50.6 91 9 48.2
22:30 1011 29.85 840 24.81 10.2 50.4 92 9 48.2
22:35 1011 29.85 840 24.81 10.1 50.2 92 8.9 48
22:40 1011 29.85 840 24.81 10.2 50.4 90 8.6 47.6
22:45 1011 29.85 840 24.81 10.6 51 88 8.7 47.6
22:50 1011 29.85 840 24.81 10.8 51.4 87 8.8 47.8
22:55 1011 29.85 840 24.81 10.8 51.4 88 8.8 47.8
23:00 1011 29.85 840 24.81 10.7 51.3 88 8.8 47.9
23:05 1011 29.85 840 24.81 10.7 51.2 88 8.8 47.9
23:10 1011 29.85 840 24.81 10.5 50.9 89 8.8 47.8
23:15 1011 29.85 840 24.81 10.4 50.6 89 8.7 47.7
23:20 1011 29.85 840 24.81 10.3 50.5 89 8.6 47.5
23:25 1011 29.85 840 24.81 10.2 50.4 89 8.5 47.2
23:30 1010 29.83 840 24.81 10.3 50.5 87 8.2 46.8
23:35 1010 29.83 840 24.81 10.5 50.9 86 8.2 46.8
23:40 1010 29.83 840 24.81 10.6 51.1 85 8.2 46.8
23:45 1010 29.83 840 24.81 10.7 51.3 85 8.2 46.8
23:50 1010 29.83 840 24.81 10.7 51.3 85 8.2 46.8
23:55 1010 29.83 840 24.81 10.7 51.3 85 8.3 47
24:00 1010 29.83 839 24.78 10.6 51.2 85 8.2 46.8